الصفحة الرئيسية
METAR-TAF:

METAR-TAF

مطار :

Koné, نيو كاليدونيا

دائرة عرض: 21-03-12S, خط طول: 164-50-18E, ارتفاع: 7 متر

METAR: مفقودة

زمن: 20:24 (09:24 UTC)

توقعات

تاريخ ووقت الإصدار 4ساعات و 24 دقيقة قبل الساعة 05:00UTC
التوقعات صالحة من22 الساعة 06 UTC إلى 23 الساعة 06 UTC
ريح 10 عقدة من الجنوب الغربي
الرؤية 10 كم أو أكثر
غيوم متفرقة على ارتفاع 2500 قدم
غيوم متفرقة على ارتفاع 5000 قدم
أصبح
من 22 الساعة 06 UTC إلى 22 الساعة 08 UTC
ريح 2 عقدةمن اتجاهات متغيرة
أصبح
من 23 الساعة 00 UTC إلى 23 الساعة 02 UTC
ريح 10 عقدة من الجنوب الغربي
مؤقت
من 23 الساعة 02 UTC إلى 23 الساعة 06 UTC
الرؤية: 4500 متر
غيوم قليلة على ارتفاع 2500 قدم, مزنة ركامية.
زخات من المطر

TAF: NWWD 220500Z 2206/2306 22010KT 9999 SCT025 SCT050 BECMG 2206/2208 VRB02KT BECMG 2300/2302 22010KT TEMPO 2302/2306 4500 SHRA FEW025CB

أرصاد الطقس والتوقعات من أكثر من 4000 مطار (تقارير الطقس للمطار METAR والتنبؤ بالطقس بالمطارTAF).

المحطات المتاحة هي النقط الصفراء والحمراء على الخريطة.

حرك المؤشر فوق النقطة لمعرفة اسم المحطة.

ثم انقر لمعرفة أرصاد وتوقعات الطقس.

لتغيير الخارطة: اضغط على الأزرار الخضراء مع رمز الصليب الأسود للتكبير. على الزر الأخضر مع شرطة للتصغير، أو على الأسهم الخضراء للخرائط المجاورة.


METAR-TAF: